sensor_id;sensor_type;location;lat;lon;timestamp;pressure;altitude;pressure_sealevel;temperature;humidity
36380;BME280;22411;53.016;18.632;2024-02-14T00:00:13;100886.31;;;1.14;100.00
36380;BME280;22411;53.016;18.632;2024-02-14T00:02:59;100889.81;;;1.10;100.00
36380;BME280;22411;53.016;18.632;2024-02-14T00:05:25;100894.94;;;1.10;100.00
36380;BME280;22411;53.016;18.632;2024-02-14T00:07:52;100895.91;;;1.04;100.00
36380;BME280;22411;53.016;18.632;2024-02-14T00:10:17;100885.75;;;1.03;100.00
36380;BME280;22411;53.016;18.632;2024-02-14T00:12:43;100894.31;;;1.00;100.00
36380;BME280;22411;53.016;18.632;2024-02-14T00:15:12;100894.44;;;0.94;100.00
36380;BME280;22411;53.016;18.632;2024-02-14T00:17:38;100897.88;;;0.93;100.00
36380;BME280;22411;53.016;18.632;2024-02-14T00:20:04;100890.22;;;0.93;100.00
36380;BME280;22411;53.016;18.632;2024-02-14T00:22:31;100899.47;;;0.97;100.00
36380;BME280;22411;53.016;18.632;2024-02-14T00:24:57;100895.16;;;1.01;100.00
36380;BME280;22411;53.016;18.632;2024-02-14T00:27:23;100904.59;;;0.97;100.00
36380;BME280;22411;53.016;18.632;2024-02-14T00:29:58;100892.63;;;0.99;100.00
36380;BME280;22411;53.016;18.632;2024-02-14T00:32:30;100899.38;;;1.02;100.00
36380;BME280;22411;53.016;18.632;2024-02-14T00:34:56;100899.47;;;0.97;100.00
36380;BME280;22411;53.016;18.632;2024-02-14T00:37:22;100900.38;;;0.96;100.00
36380;BME280;22411;53.016;18.632;2024-02-14T00:39:48;100897.88;;;0.93;100.00
36380;BME280;22411;53.016;18.632;2024-02-14T00:42:15;100898.72;;;0.94;100.00
36380;BME280;22411;53.016;18.632;2024-02-14T00:44:41;100899.63;;;0.91;100.00
36380;BME280;22411;53.016;18.632;2024-02-14T00:47:07;100904.78;;;0.90;100.00
36380;BME280;22411;53.016;18.632;2024-02-14T00:49:36;100902.31;;;0.85;100.00
36380;BME280;22411;53.016;18.632;2024-02-14T00:52:03;100905.84;;;0.80;100.00
36380;BME280;22411;53.016;18.632;2024-02-14T00:54:28;100902.56;;;0.73;100.00
36380;BME280;22411;53.016;18.632;2024-02-14T00:56:54;100904.38;;;0.69;100.00
36380;BME280;22411;53.016;18.632;2024-02-14T00:59:20;100905.28;;;0.65;100.00
36380;BME280;22411;53.016;18.632;2024-02-14T01:01:46;100905.38;;;0.61;100.00
36380;BME280;22411;53.016;18.632;2024-02-14T01:04:11;100908.94;;;0.54;100.00
36380;BME280;22411;53.016;18.632;2024-02-14T01:06:37;100908.22;;;0.47;100.00
36380;BME280;22411;53.016;18.632;2024-02-14T01:09:03;100906.56;;;0.44;100.00
36380;BME280;22411;53.016;18.632;2024-02-14T01:11:29;100909.16;;;0.43;100.00
36380;BME280;22411;53.016;18.632;2024-02-14T01:13:54;100905.78;;;0.42;100.00
36380;BME280;22411;53.016;18.632;2024-02-14T01:16:20;100908.25;;;0.45;100.00
36380;BME280;22411;53.016;18.632;2024-02-14T01:18:46;100904.06;;;0.43;100.00
36380;BME280;22411;53.016;18.632;2024-02-14T01:21:11;100908.44;;;0.36;100.00
36380;BME280;22411;53.016;18.632;2024-02-14T01:23:37;100898.31;;;0.32;100.00
36380;BME280;22411;53.016;18.632;2024-02-14T01:26:03;100906.97;;;0.24;100.00
36380;BME280;22411;53.016;18.632;2024-02-14T01:28:29;100906.16;;;0.22;100.00
36380;BME280;22411;53.016;18.632;2024-02-14T01:30:55;100907.94;;;0.19;100.00
36380;BME280;22411;53.016;18.632;2024-02-14T01:33:22;100907.13;;;0.15;100.00
36380;BME280;22411;53.016;18.632;2024-02-14T01:35:48;100896.19;;;0.10;100.00
36380;BME280;22411;53.016;18.632;2024-02-14T01:38:14;100906.44;;;0.07;100.00
36380;BME280;22411;53.016;18.632;2024-02-14T01:40:44;100899.66;;;0.08;100.00
36380;BME280;22411;53.016;18.632;2024-02-14T01:43:10;100901.31;;;0.09;100.00
36380;BME280;22411;53.016;18.632;2024-02-14T01:45:37;100899.66;;;0.08;100.00
36380;BME280;22411;53.016;18.632;2024-02-14T01:48:04;100900.44;;;0.11;100.00
36380;BME280;22411;53.016;18.632;2024-02-14T01:50:33;100899.53;;;0.14;100.00
36380;BME280;22411;53.016;18.632;2024-02-14T01:53:00;100899.53;;;0.14;100.00
36380;BME280;22411;53.016;18.632;2024-02-14T01:55:27;100899.47;;;0.15;100.00
36380;BME280;22411;53.016;18.632;2024-02-14T01:57:54;100904.66;;;0.12;100.00
36380;BME280;22411;53.016;18.632;2024-02-14T02:00:20;100911.50;;;0.09;100.00
36380;BME280;22411;53.016;18.632;2024-02-14T02:02:46;100903.03;;;0.08;100.00
36380;BME280;22411;53.016;18.632;2024-02-14T02:05:15;100898.81;;;0.07;100.00
36380;BME280;22411;53.016;18.632;2024-02-14T02:07:42;100902.25;;;0.05;100.00
36380;BME280;22411;53.016;18.632;2024-02-14T02:10:10;100909.03;;;0.04;100.00
36380;BME280;22411;53.016;18.632;2024-02-14T02:12:37;100915.03;;;0.03;100.00
36380;BME280;22411;53.016;18.632;2024-02-14T02:15:07;100907.44;;;0.00;100.00
36380;BME280;22411;53.016;18.632;2024-02-14T02:17:38;100918.53;;;-0.03;100.00
36380;BME280;22411;53.016;18.632;2024-02-14T02:20:05;100916.84;;;-0.04;100.00
36380;BME280;22411;53.016;18.632;2024-02-14T02:22:33;100916.00;;;-0.06;100.00
36380;BME280;22411;53.016;18.632;2024-02-14T02:25:02;100910.91;;;-0.04;100.00
36380;BME280;22411;53.016;18.632;2024-02-14T02:27:28;100919.44;;;-0.05;100.00
36380;BME280;22411;53.016;18.632;2024-02-14T02:29:54;100916.06;;;-0.07;100.00
36380;BME280;22411;53.016;18.632;2024-02-14T02:32:19;100915.91;;;0.02;100.00
36380;BME280;22411;53.016;18.632;2024-02-14T02:34:45;100917.59;;;0.02;100.00
36380;BME280;22411;53.016;18.632;2024-02-14T02:37:11;100915.94;;;0.01;100.00
36380;BME280;22411;53.016;18.632;2024-02-14T02:39:38;100914.25;;;-0.02;100.00
36380;BME280;22411;53.016;18.632;2024-02-14T02:42:04;100917.69;;;-0.03;100.00
36380;BME280;22411;53.016;18.632;2024-02-14T02:44:31;100915.19;;;-0.05;100.00
36380;BME280;22411;53.016;18.632;2024-02-14T02:46:56;100920.28;;;-0.05;100.00
36380;BME280;22411;53.016;18.632;2024-02-14T02:49:22;100916.88;;;-0.07;100.00
36380;BME280;22411;53.016;18.632;2024-02-14T02:51:48;100918.75;;;-0.15;100.00
36380;BME280;22411;53.016;18.632;2024-02-14T02:54:14;100926.50;;;-0.21;100.00
36380;BME280;22411;53.016;18.632;2024-02-14T02:56:39;100926.50;;;-0.22;100.00
36380;BME280;22411;53.016;18.632;2024-02-14T02:59:06;100925.63;;;-0.21;100.00
36380;BME280;22411;53.016;18.632;2024-02-14T03:01:36;100923.09;;;-0.21;100.00
36380;BME280;22411;53.016;18.632;2024-02-14T03:04:02;100921.44;;;-0.24;100.00
36380;BME280;22411;53.016;18.632;2024-02-14T03:06:28;100925.72;;;-0.24;100.00
36380;BME280;22411;53.016;18.632;2024-02-14T03:08:54;100921.53;;;-0.29;100.00
36380;BME280;22411;53.016;18.632;2024-02-14T03:11:22;100920.72;;;-0.31;100.00
36380;BME280;22411;53.016;18.632;2024-02-14T03:13:48;100924.97;;;-0.31;100.00
36380;BME280;22411;53.016;18.632;2024-02-14T03:16:15;100927.59;;;-0.36;100.00
36380;BME280;22411;53.016;18.632;2024-02-14T03:18:43;100926.91;;;-0.45;100.00
36380;BME280;22411;53.016;18.632;2024-02-14T03:21:09;100924.41;;;-0.47;100.00
36380;BME280;22411;53.016;18.632;2024-02-14T03:23:35;100930.28;;;-0.45;100.00
36380;BME280;22411;53.016;18.632;2024-02-14T03:26:00;100932.81;;;-0.43;100.00
36380;BME280;22411;53.016;18.632;2024-02-14T03:28:26;100924.28;;;-0.42;100.00
36380;BME280;22411;53.016;18.632;2024-02-14T03:30:52;100931.94;;;-0.41;100.00
36380;BME280;22411;53.016;18.632;2024-02-14T03:33:19;100940.41;;;-0.40;100.00
36380;BME280;22411;53.016;18.632;2024-02-14T03:35:45;100940.41;;;-0.40;100.00
36380;BME280;22411;53.016;18.632;2024-02-14T03:38:11;100940.44;;;-0.43;100.00
36380;BME280;22411;53.016;18.632;2024-02-14T03:40:36;100937.03;;;-0.42;100.00
36380;BME280;22411;53.016;18.632;2024-02-14T03:43:04;100939.56;;;-0.42;100.00
36380;BME280;22411;53.016;18.632;2024-02-14T03:45:30;100936.19;;;-0.43;100.00
36380;BME280;22411;53.016;18.632;2024-02-14T03:47:56;100935.22;;;-0.34;100.00
36380;BME280;22411;53.016;18.632;2024-02-14T03:50:22;100934.38;;;-0.35;100.00
36380;BME280;22411;53.016;18.632;2024-02-14T03:52:48;100932.72;;;-0.39;100.00
36380;BME280;22411;53.016;18.632;2024-02-14T03:55:14;100938.66;;;-0.37;100.00
36380;BME280;22411;53.016;18.632;2024-02-14T03:57:43;100944.59;;;-0.38;100.00
36380;BME280;22411;53.016;18.632;2024-02-14T04:00:11;100946.28;;;-0.35;100.00
36380;BME280;22411;53.016;18.632;2024-02-14T04:02:37;100938.66;;;-0.37;100.00
36380;BME280;22411;53.016;18.632;2024-02-14T04:05:03;100945.50;;;-0.40;100.00
36380;BME280;22411;53.016;18.632;2024-02-14T04:07:29;100946.41;;;-0.44;100.00
36380;BME280;22411;53.016;18.632;2024-02-14T04:09:55;100943.91;;;-0.46;100.00
36380;BME280;22411;53.016;18.632;2024-02-14T04:12:21;100946.47;;;-0.49;100.00
36380;BME280;22411;53.016;18.632;2024-02-14T04:14:47;100946.50;;;-0.50;100.00
36380;BME280;22411;53.016;18.632;2024-02-14T04:17:13;100944.81;;;-0.50;100.00
36380;BME280;22411;53.016;18.632;2024-02-14T04:19:39;100939.72;;;-0.50;100.00
36380;BME280;22411;53.016;18.632;2024-02-14T04:22:05;100944.09;;;-0.60;100.00
36380;BME280;22411;53.016;18.632;2024-02-14T04:24:35;100946.63;;;-0.58;100.00
36380;BME280;22411;53.016;18.632;2024-02-14T04:27:01;100946.63;;;-0.58;100.00
36380;BME280;22411;53.016;18.632;2024-02-14T04:29:29;100947.50;;;-0.58;100.00
36380;BME280;22411;53.016;18.632;2024-02-14T04:31:56;100942.41;;;-0.58;100.00
36380;BME280;22411;53.016;18.632;2024-02-14T04:34:22;100945.78;;;-0.57;100.00
36380;BME280;22411;53.016;18.632;2024-02-14T04:36:48;100951.72;;;-0.57;100.00
36380;BME280;22411;53.016;18.632;2024-02-14T04:39:14;100951.66;;;-0.54;100.00
36380;BME280;22411;53.016;18.632;2024-02-14T04:41:40;100954.97;;;-0.47;100.00
36380;BME280;22411;53.016;18.632;2024-02-14T04:44:05;100958.28;;;-0.43;100.00
36380;BME280;22411;53.016;18.632;2024-02-14T04:46:34;100956.50;;;-0.37;100.00
36380;BME280;22411;53.016;18.632;2024-02-14T04:49:01;100958.13;;;-0.34;100.00
36380;BME280;22411;53.016;18.632;2024-02-14T04:51:29;100958.09;;;-0.31;100.00
36380;BME280;22411;53.016;18.632;2024-02-14T04:53:55;100954.69;;;-0.30;100.00
36380;BME280;22411;53.016;18.632;2024-02-14T04:56:25;100954.66;;;-0.29;100.00
36380;BME280;22411;53.016;18.632;2024-02-14T04:58:53;100947.91;;;-0.33;100.00
36380;BME280;22411;53.016;18.632;2024-02-14T05:01:19;100955.63;;;-0.36;100.00
36380;BME280;22411;53.016;18.632;2024-02-14T05:03:44;100954.06;;;-0.44;100.00
36380;BME280;22411;53.016;18.632;2024-02-14T05:06:10;100960.13;;;-0.53;100.00
36380;BME280;22411;53.016;18.632;2024-02-14T05:08:36;100949.97;;;-0.55;100.00
36380;BME280;22411;53.016;18.632;2024-02-14T05:11:02;100956.91;;;-0.63;100.00
36380;BME280;22411;53.016;18.632;2024-02-14T05:13:30;100958.66;;;-0.68;100.00
36380;BME280;22411;53.016;18.632;2024-02-14T05:15:55;100959.56;;;-0.72;100.00
36380;BME280;22411;53.016;18.632;2024-02-14T05:18:22;100957.09;;;-0.76;100.00
36380;BME280;22411;53.016;18.632;2024-02-14T05:20:48;100957.16;;;-0.81;100.00
36380;BME280;22411;53.016;18.632;2024-02-14T05:23:14;100955.50;;;-0.84;100.00
36380;BME280;22411;53.016;18.632;2024-02-14T05:25:43;100953.03;;;-0.88;100.00
36380;BME280;22411;53.016;18.632;2024-02-14T05:28:09;100948.78;;;-0.88;100.00
36380;BME280;22411;53.016;18.632;2024-02-14T05:30:42;100959.03;;;-0.94;100.00
36380;BME280;22411;53.016;18.632;2024-02-14T05:33:08;100953.94;;;-0.92;100.00
36380;BME280;22411;53.016;18.632;2024-02-14T05:35:34;100956.50;;;-0.95;100.00
36380;BME280;22411;53.016;18.632;2024-02-14T05:37:59;100954.00;;;-0.98;100.00
36380;BME280;22411;53.016;18.632;2024-02-14T05:40:25;100950.63;;;-0.99;100.00
36380;BME280;22411;53.016;18.632;2024-02-14T05:42:51;100951.56;;;-1.06;100.00
36380;BME280;22411;53.016;18.632;2024-02-14T05:45:17;100955.06;;;-1.13;100.00
36380;BME280;22411;53.016;18.632;2024-02-14T05:47:43;100956.78;;;-1.15;100.00
36380;BME280;22411;53.016;18.632;2024-02-14T05:50:09;100956.78;;;-1.15;100.00
36380;BME280;22411;53.016;18.632;2024-02-14T05:52:37;100957.63;;;-1.16;100.00
36380;BME280;22411;53.016;18.632;2024-02-14T05:55:04;100959.38;;;-1.20;100.00
36380;BME280;22411;53.016;18.632;2024-02-14T05:57:30;100958.56;;;-1.20;100.00
36380;BME280;22411;53.016;18.632;2024-02-14T05:59:56;100956.00;;;-1.20;100.00
36380;BME280;22411;53.016;18.632;2024-02-14T06:02:22;100969.50;;;-1.15;100.00
36380;BME280;22411;53.016;18.632;2024-02-14T06:04:48;100966.13;;;-1.16;100.00
36380;BME280;22411;53.016;18.632;2024-02-14T06:07:13;100963.59;;;-1.19;100.00
36380;BME280;22411;53.016;18.632;2024-02-14T06:09:39;100963.53;;;-1.13;100.00
36380;BME280;22411;53.016;18.632;2024-02-14T06:12:06;100967.75;;;-1.10;100.00
36380;BME280;22411;53.016;18.632;2024-02-14T06:14:32;100965.22;;;-1.10;100.00
36380;BME280;22411;53.016;18.632;2024-02-14T06:17:00;100955.00;;;-1.09;100.00
36380;BME280;22411;53.016;18.632;2024-02-14T06:19:27;100967.72;;;-1.09;100.00
36380;BME280;22411;53.016;18.632;2024-02-14T06:21:53;100963.44;;;-1.07;100.00
36380;BME280;22411;53.016;18.632;2024-02-14T06:24:18;100961.72;;;-1.04;100.00
36380;BME280;22411;53.016;18.632;2024-02-14T06:26:45;100964.28;;;-1.04;100.00
36380;BME280;22411;53.016;18.632;2024-02-14T06:29:11;100969.31;;;-1.01;100.00
36380;BME280;22411;53.016;18.632;2024-02-14T06:31:36;100977.72;;;-0.95;100.00
36380;BME280;22411;53.016;18.632;2024-02-14T06:34:02;100974.28;;;-0.92;100.00
36380;BME280;22411;53.016;18.632;2024-02-14T06:36:28;100975.91;;;-0.87;100.00
36380;BME280;22411;53.016;18.632;2024-02-14T06:38:54;100974.19;;;-0.86;100.00
36380;BME280;22411;53.016;18.632;2024-02-14T06:41:19;100981.81;;;-0.83;100.00
36380;BME280;22411;53.016;18.632;2024-02-14T06:43:45;100980.88;;;-0.77;100.00
36380;BME280;22411;53.016;18.632;2024-02-14T06:46:11;100975.81;;;-0.79;100.00
36380;BME280;22411;53.016;18.632;2024-02-14T06:48:37;100979.06;;;-0.71;100.00
36380;BME280;22411;53.016;18.632;2024-02-14T06:51:03;100993.44;;;-0.67;100.00
36380;BME280;22411;53.016;18.632;2024-02-14T06:53:29;100984.00;;;-0.60;100.00
36380;BME280;22411;53.016;18.632;2024-02-14T06:55:56;100982.25;;;-0.58;100.00
36380;BME280;22411;53.016;18.632;2024-02-14T06:58:21;100988.13;;;-0.53;100.00
36380;BME280;22411;53.016;18.632;2024-02-14T07:00:47;100984.75;;;-0.54;100.00
36380;BME280;22411;53.016;18.632;2024-02-14T07:03:13;100989.75;;;-0.46;100.00
36380;BME280;22411;53.016;18.632;2024-02-14T07:05:39;100992.28;;;-0.46;100.00
36380;BME280;22411;53.016;18.632;2024-02-14T07:08:05;100991.41;;;-0.45;100.00
36380;BME280;22411;53.016;18.632;2024-02-14T07:10:30;100997.22;;;-0.35;100.00
36380;BME280;22411;53.016;18.632;2024-02-14T07:12:57;100991.94;;;-0.24;100.00
36380;BME280;22411;53.016;18.632;2024-02-14T07:15:23;100992.63;;;-0.13;100.00
36380;BME280;22411;53.016;18.632;2024-02-14T07:17:56;100996.72;;;-0.06;100.00
36380;BME280;22411;53.016;18.632;2024-02-14T07:20:24;100988.97;;;0.02;100.00
36380;BME280;22411;53.016;18.632;2024-02-14T07:22:53;100988.84;;;0.08;100.00
36380;BME280;22411;53.016;18.632;2024-02-14T07:25:19;100977.69;;;0.15;100.00
36380;BME280;22411;53.016;18.632;2024-02-14T07:27:45;100988.72;;;0.17;100.00
36380;BME280;22411;53.016;18.632;2024-02-14T07:30:14;100978.41;;;0.23;100.00
36380;BME280;22411;53.016;18.632;2024-02-14T07:32:39;100985.88;;;0.32;100.00
36380;BME280;22411;53.016;18.632;2024-02-14T07:35:06;100987.50;;;0.35;100.00
36380;BME280;22411;53.016;18.632;2024-02-14T07:37:32;100983.97;;;0.43;100.00
36380;BME280;22411;53.016;18.632;2024-02-14T07:39:58;100988.03;;;0.52;100.00
36380;BME280;22411;53.016;18.632;2024-02-14T07:42:23;100987.78;;;0.66;100.00
36380;BME280;22411;53.016;18.632;2024-02-14T07:44:49;100987.56;;;0.76;100.00
36380;BME280;22411;53.016;18.632;2024-02-14T07:47:15;100988.22;;;0.86;100.00
36380;BME280;22411;53.016;18.632;2024-02-14T07:49:40;100982.88;;;0.97;100.00
36380;BME280;22411;53.016;18.632;2024-02-14T07:52:06;100978.56;;;1.00;100.00
36380;BME280;22411;53.016;18.632;2024-02-14T07:54:32;100987.66;;;1.12;100.00
36380;BME280;22411;53.016;18.632;2024-02-14T07:56:58;100988.25;;;1.23;100.00
36380;BME280;22411;53.016;18.632;2024-02-14T07:59:24;100989.03;;;1.27;100.00
36380;BME280;22411;53.016;18.632;2024-02-14T08:01:49;100993.19;;;1.31;100.00
36380;BME280;22411;53.016;18.632;2024-02-14T08:04:16;100988.66;;;1.44;100.00
36380;BME280;22411;53.016;18.632;2024-02-14T08:06:44;100990.97;;;1.54;100.00
36380;BME280;22411;53.016;18.632;2024-02-14T08:09:10;100993.38;;;1.61;100.00
36380;BME280;22411;53.016;18.632;2024-02-14T08:11:36;100987.94;;;1.74;100.00
36380;BME280;22411;53.016;18.632;2024-02-14T08:14:02;100988.47;;;1.87;100.00
36380;BME280;22411;53.016;18.632;2024-02-14T08:16:28;100984.81;;;1.97;100.00
36380;BME280;22411;53.016;18.632;2024-02-14T08:18:54;100993.81;;;2.12;100.00
36380;BME280;22411;53.016;18.632;2024-02-14T08:21:27;100993.38;;;2.29;100.00
36380;BME280;22411;53.016;18.632;2024-02-14T08:23:54;100991.28;;;2.43;100.00
36380;BME280;22411;53.016;18.632;2024-02-14T08:26:21;100991.66;;;2.60;100.00
36380;BME280;22411;53.016;18.632;2024-02-14T08:28:48;100986.19;;;2.73;100.00
36380;BME280;22411;53.016;18.632;2024-02-14T08:31:14;100980.69;;;2.86;100.00
36380;BME280;22411;53.016;18.632;2024-02-14T08:33:40;100981.22;;;2.98;100.00
36380;BME280;22411;53.016;18.632;2024-02-14T08:36:06;100984.22;;;3.10;100.00
36380;BME280;22411;53.016;18.632;2024-02-14T08:38:35;100985.94;;;3.11;100.00
36380;BME280;22411;53.016;18.632;2024-02-14T08:41:02;100980.56;;;3.19;100.00
36380;BME280;22411;53.016;18.632;2024-02-14T08:43:29;100981.19;;;3.27;100.00
36380;BME280;22411;53.016;18.632;2024-02-14T08:45:55;100990.22;;;3.39;100.00
36380;BME280;22411;53.016;18.632;2024-02-14T08:48:22;100990.94;;;3.69;100.00
36380;BME280;22411;53.016;18.632;2024-02-14T08:50:47;100995.56;;;3.86;100.00
36380;BME280;22411;53.016;18.632;2024-02-14T08:53:13;101002.38;;;4.12;100.00
36380;BME280;22411;53.016;18.632;2024-02-14T08:55:40;101002.88;;;4.46;100.00
36380;BME280;22411;53.016;18.632;2024-02-14T08:58:07;101002.97;;;4.92;100.00
36380;BME280;22411;53.016;18.632;2024-02-14T09:00:38;101008.03;;;5.17;100.00
36380;BME280;22411;53.016;18.632;2024-02-14T09:03:04;101004.50;;;5.19;100.00
36380;BME280;22411;53.016;18.632;2024-02-14T09:05:31;101007.22;;;5.38;100.00
36380;BME280;22411;53.016;18.632;2024-02-14T09:07:57;101008.06;;;5.39;100.00
36380;BME280;22411;53.016;18.632;2024-02-14T09:10:23;100996.31;;;5.32;100.00
36380;BME280;22411;53.016;18.632;2024-02-14T09:12:49;101003.00;;;5.36;100.00
36380;BME280;22411;53.016;18.632;2024-02-14T09:15:14;101002.00;;;5.40;100.00
36380;BME280;22411;53.016;18.632;2024-02-14T09:17:40;101004.38;;;5.66;100.00
36380;BME280;22411;53.016;18.632;2024-02-14T09:20:08;101008.63;;;6.10;100.00
36380;BME280;22411;53.016;18.632;2024-02-14T09:22:35;101005.31;;;6.67;100.00
36380;BME280;22411;53.016;18.632;2024-02-14T09:25:02;101010.94;;;7.32;100.00
36380;BME280;22411;53.016;18.632;2024-02-14T09:27:31;101010.81;;;7.89;100.00
36380;BME280;22411;53.016;18.632;2024-02-14T09:29:58;101011.03;;;8.36;100.00
36380;BME280;22411;53.016;18.632;2024-02-14T09:32:25;101005.84;;;9.34;100.00
36380;BME280;22411;53.016;18.632;2024-02-14T09:34:50;101014.88;;;10.03;100.00
36380;BME280;22411;53.016;18.632;2024-02-14T09:37:16;101015.88;;;10.30;100.00
36380;BME280;22411;53.016;18.632;2024-02-14T09:39:42;101015.81;;;9.86;100.00
36380;BME280;22411;53.016;18.632;2024-02-14T09:42:13;101019.59;;;8.54;100.00
36380;BME280;22411;53.016;18.632;2024-02-14T09:44:40;101021.44;;;8.00;100.00
36380;BME280;22411;53.016;18.632;2024-02-14T09:47:07;101012.16;;;7.78;100.00
36380;BME280;22411;53.016;18.632;2024-02-14T09:49:34;101021.41;;;8.17;100.00
36380;BME280;22411;53.016;18.632;2024-02-14T09:52:01;101020.44;;;9.03;100.00
36380;BME280;22411;53.016;18.632;2024-02-14T09:54:29;101025.50;;;9.98;100.00
36380;BME280;22411;53.016;18.632;2024-02-14T09:56:57;101030.41;;;11.72;100.00
36380;BME280;22411;53.016;18.632;2024-02-14T09:59:23;101033.44;;;12.57;100.00
36380;BME280;22411;53.016;18.632;2024-02-14T10:01:50;101031.97;;;13.28;95.57
36380;BME280;22411;53.016;18.632;2024-02-14T10:04:16;101032.88;;;13.64;86.46
36380;BME280;22411;53.016;18.632;2024-02-14T10:06:45;101034.91;;;14.06;82.03
36380;BME280;22411;53.016;18.632;2024-02-14T10:09:10;101040.25;;;13.70;82.39
36380;BME280;22411;53.016;18.632;2024-02-14T10:11:37;101050.44;;;14.65;73.38
36380;BME280;22411;53.016;18.632;2024-02-14T10:14:06;101046.91;;;15.55;65.19
36380;BME280;22411;53.016;18.632;2024-02-14T10:16:35;101045.19;;;16.90;56.69
36380;BME280;22411;53.016;18.632;2024-02-14T10:19:01;101038.69;;;17.44;50.65
36380;BME280;22411;53.016;18.632;2024-02-14T10:21:28;101037.06;;;18.01;47.58
36380;BME280;22411;53.016;18.632;2024-02-14T10:23:53;101035.94;;;18.70;46.82
36380;BME280;22411;53.016;18.632;2024-02-14T10:26:23;101039.91;;;18.37;43.66
36380;BME280;22411;53.016;18.632;2024-02-14T10:28:48;101031.25;;;17.30;45.09
36380;BME280;22411;53.016;18.632;2024-02-14T10:31:17;101023.19;;;16.41;50.46
36380;BME280;22411;53.016;18.632;2024-02-14T10:33:43;101017.38;;;15.43;56.06
36380;BME280;22411;53.016;18.632;2024-02-14T10:36:12;101017.31;;;14.21;62.06
36380;BME280;22411;53.016;18.632;2024-02-14T10:38:39;101007.63;;;13.16;73.36
36380;BME280;22411;53.016;18.632;2024-02-14T10:41:05;101001.09;;;12.48;76.23
36380;BME280;22411;53.016;18.632;2024-02-14T10:43:31;100995.25;;;12.70;79.49
36380;BME280;22411;53.016;18.632;2024-02-14T10:46:00;101005.66;;;13.44;69.48
36380;BME280;22411;53.016;18.632;2024-02-14T10:48:35;101006.00;;;14.78;59.40
36380;BME280;22411;53.016;18.632;2024-02-14T10:51:04;100997.09;;;16.00;51.17
36380;BME280;22411;53.016;18.632;2024-02-14T10:53:33;101029.34;;;17.90;44.40
36380;BME280;22411;53.016;18.632;2024-02-14T10:56:02;101013.31;;;17.25;44.77
36380;BME280;22411;53.016;18.632;2024-02-14T10:58:29;101006.19;;;16.78;44.97
36380;BME280;22411;53.016;18.632;2024-02-14T11:00:58;101002.03;;;17.54;45.09
36380;BME280;22411;53.016;18.632;2024-02-14T11:03:24;101010.88;;;16.32;46.21
36380;BME280;22411;53.016;18.632;2024-02-14T11:05:53;101004.22;;;14.56;55.83
36380;BME280;22411;53.016;18.632;2024-02-14T11:08:19;101001.84;;;13.96;58.25
36380;BME280;22411;53.016;18.632;2024-02-14T11:10:58;101007.84;;;14.43;57.68
36380;BME280;22411;53.016;18.632;2024-02-14T11:13:28;100985.22;;;15.75;50.26
36380;BME280;22411;53.016;18.632;2024-02-14T11:16:00;101003.00;;;16.53;47.73
36380;BME280;22411;53.016;18.632;2024-02-14T11:18:27;100988.06;;;17.05;44.86
36380;BME280;22411;53.016;18.632;2024-02-14T11:20:55;100982.56;;;17.28;43.88
36380;BME280;22411;53.016;18.632;2024-02-14T11:23:22;100980.56;;;15.99;46.73
36380;BME280;22411;53.016;18.632;2024-02-14T11:25:48;100979.03;;;14.10;56.77
36380;BME280;22411;53.016;18.632;2024-02-14T11:28:18;100976.47;;;12.41;71.07
36380;BME280;22411;53.016;18.632;2024-02-14T11:30:47;100975.53;;;12.29;76.33
36380;BME280;22411;53.016;18.632;2024-02-14T11:33:14;100968.59;;;12.92;70.94
36380;BME280;22411;53.016;18.632;2024-02-14T11:35:41;100964.94;;;13.67;64.60
36380;BME280;22411;53.016;18.632;2024-02-14T11:38:08;100963.66;;;13.72;63.89
36380;BME280;22411;53.016;18.632;2024-02-14T11:40:35;100956.53;;;14.54;60.27
36380;BME280;22411;53.016;18.632;2024-02-14T11:43:03;100957.47;;;14.76;56.51
36380;BME280;22411;53.016;18.632;2024-02-14T11:45:29;100961.75;;;14.43;56.60
36380;BME280;22411;53.016;18.632;2024-02-14T11:47:55;100959.72;;;14.47;58.66
36380;BME280;22411;53.016;18.632;2024-02-14T11:50:22;100959.97;;;13.75;62.18
36380;BME280;22411;53.016;18.632;2024-02-14T11:52:47;100954.88;;;12.77;71.22
36380;BME280;22411;53.016;18.632;2024-02-14T11:55:17;100959.56;;;11.43;86.96
36380;BME280;22411;53.016;18.632;2024-02-14T11:57:43;100949.78;;;10.23;100.00
36380;BME280;22411;53.016;18.632;2024-02-14T12:00:09;100943.00;;;9.92;100.00
36380;BME280;22411;53.016;18.632;2024-02-14T12:02:35;100933.94;;;9.55;100.00
36380;BME280;22411;53.016;18.632;2024-02-14T12:05:01;100932.63;;;10.06;100.00
36380;BME280;22411;53.016;18.632;2024-02-14T12:07:31;100944.84;;;11.17;99.21
36380;BME280;22411;53.016;18.632;2024-02-14T12:09:57;100932.91;;;11.14;95.59
36380;BME280;22411;53.016;18.632;2024-02-14T12:12:22;100933.16;;;11.64;90.07
36380;BME280;22411;53.016;18.632;2024-02-14T12:14:52;100927.72;;;12.07;80.93
36380;BME280;22411;53.016;18.632;2024-02-14T12:17:18;100929.22;;;12.60;74.88
36380;BME280;22411;53.016;18.632;2024-02-14T12:19:47;100933.53;;;12.10;79.40
36380;BME280;22411;53.016;18.632;2024-02-14T12:22:17;100925.88;;;11.16;88.20
36380;BME280;22411;53.016;18.632;2024-02-14T12:24:46;100938.44;;;10.40;99.63
36380;BME280;22411;53.016;18.632;2024-02-14T12:27:13;100918.28;;;9.42;100.00
36380;BME280;22411;53.016;18.632;2024-02-14T12:29:45;100920.19;;;8.93;100.00
36380;BME280;22411;53.016;18.632;2024-02-14T12:32:11;100908.00;;;8.79;100.00